Time;durP1;ratioP1;P1;durP2;ratioP2;P2;SDS_P1;SDS_P2;PMS_P1;PMS_P2;Temp;Humidity;BMP_temperature;BMP_pressure;BME280_temperature;BME280_humidity;BME280_pressure;Samples;Min_cycle;Max_cycle;Signal;HPM_P1;HPM_P2
2021/04/01 00:00:09;;;;;;;61.53;28.35;;;;;;;3.89;77.48;101615.29;1723063;83;21086;-49
2021/04/01 00:02:37;;;;;;;59.35;25.55;;;;;;;3.88;77.66;101616.17;1723077;83;21170;-49
2021/04/01 00:05:07;;;;;;;49.00;26.33;;;;;;;3.87;77.91;101615.72;1723048;83;21154;-49
2021/04/01 00:07:34;;;;;;;51.60;25.57;;;;;;;3.88;78.13;101614.84;1723117;83;21166;-49
2021/04/01 00:10:06;;;;;;;60.15;26.68;;;;;;;3.88;78.38;101617.49;1723167;83;21214;-49
2021/04/01 00:12:35;;;;;;;54.53;27.40;;;;;;;3.90;78.77;101619.72;1722952;83;21145;-48
2021/04/01 00:15:06;;;;;;;59.40;26.68;;;;;;;3.89;78.86;101609.98;1723088;83;21201;-48
2021/04/01 00:17:35;;;;;;;70.83;32.78;;;;;;;3.89;78.82;101612.64;1723205;83;21169;-49
2021/04/01 00:20:07;;;;;;;75.72;34.45;;;;;;;3.87;78.91;101614.39;1723162;83;21086;-49
2021/04/01 00:22:40;;;;;;;67.45;32.13;;;;;;;3.84;79.17;101611.69;1723264;83;21196;-48
2021/04/01 00:25:14;;;;;;;74.82;32.17;;;;;;;3.81;79.36;101619.21;1728922;82;21141;-49
2021/04/01 00:27:43;;;;;;;77.25;31.55;;;;;;;3.77;79.53;101607.23;1761225;81;21065;-49
2021/04/01 00:30:12;;;;;;;68.42;31.82;;;;;;;3.73;79.63;101611.61;1740412;82;21091;-49
2021/04/01 00:32:40;;;;;;;58.17;29.27;;;;;;;3.68;79.68;101606.30;1761251;81;21098;-48
2021/04/01 00:35:09;;;;;;;60.05;27.67;;;;;;;3.65;79.97;101606.28;1740398;82;21365;-49
2021/04/01 00:37:36;;;;;;;63.05;29.70;;;;;;;3.62;80.25;101602.25;1761173;81;21125;-48
2021/04/01 00:40:06;;;;;;;48.60;25.65;;;;;;;3.63;80.40;101599.18;1740361;82;21160;-48
2021/04/01 00:42:34;;;;;;;56.50;25.90;;;;;;;3.63;80.65;101592.09;1761212;81;21093;-48
2021/04/01 00:45:07;;;;;;;64.20;28.47;;;;;;;3.67;80.69;101587.28;1755703;81;21518;-49
2021/04/01 00:47:45;;;;;;;48.77;25.63;;;;;;;3.79;80.77;101586.91;1889408;76;22197;-49
2021/04/01 00:50:18;;;;;;;49.23;24.52;;;;;;;3.77;80.65;101576.30;1860285;77;20928;-49
2021/04/01 00:52:46;;;;;;;47.73;25.68;;;;;;;3.82;80.58;101577.63;1827115;77;21367;-49
2021/04/01 00:55:15;;;;;;;58.25;26.40;;;;;;;3.83;80.36;101570.13;1860164;77;21170;-53
2021/04/01 00:57:45;;;;;;;68.95;30.27;;;;;;;3.84;80.18;101571.89;1830537;77;21108;-49
2021/04/01 01:00:16;;;;;;;70.47;32.90;;;;;;;3.85;80.07;101573.67;1824810;77;21050;-49
2021/04/01 01:02:43;;;;;;;78.05;35.15;;;;;;;3.83;80.03;101568.80;1824797;78;21054;-49
2021/04/01 01:05:13;;;;;;;94.90;39.63;;;;;;;3.83;80.15;101564.39;1824830;78;21524;-48
2021/04/01 01:07:41;;;;;;;85.57;40.50;;;;;;;3.84;80.15;101566.59;1824815;78;21789;-49
2021/04/01 01:10:17;;;;;;;74.80;38.35;;;;;;;3.82;80.13;101554.66;1824868;78;21048;-50
2021/04/01 01:12:45;;;;;;;88.20;40.43;;;;;;;3.80;80.11;101548.88;1826481;78;21135;-50
2021/04/01 01:15:15;;;;;;;87.02;41.95;;;;;;;3.77;80.05;101554.17;1826510;78;21572;-49
2021/04/01 01:17:42;;;;;;;96.80;41.48;;;;;;;3.77;80.07;101547.55;1826476;78;21368;-54
2021/04/01 01:20:12;;;;;;;85.47;41.28;;;;;;;3.76;80.13;101543.12;1826338;78;21079;-49
2021/04/01 01:22:41;;;;;;;94.00;42.50;;;;;;;3.76;80.32;101537.81;1821510;78;21083;-49
2021/04/01 01:25:11;;;;;;;90.42;44.65;;;;;;;3.78;80.44;101541.36;1826497;78;21035;-48
2021/04/01 01:27:39;;;;;;;99.65;45.45;;;;;;;3.77;80.44;101536.94;1826412;78;21134;-49
2021/04/01 01:30:11;;;;;;;96.00;45.08;;;;;;;3.73;80.53;101531.62;1826467;78;21489;-48
2021/04/01 01:32:39;;;;;;;101.30;44.18;;;;;;;3.71;80.66;101529.81;1826374;78;21150;-48
2021/04/01 01:35:19;;;;;;;95.22;42.45;;;;;;;3.67;80.79;101528.94;1826562;78;21166;-48
2021/04/01 01:37:57;;;;;;;74.95;37.28;;;;;;;3.64;80.98;101522.72;1826523;78;21111;-49
2021/04/01 01:40:26;;;;;;;88.78;40.55;;;;;;;3.61;81.28;101518.72;1826511;78;21139;-49
2021/04/01 01:42:56;;;;;;;86.63;39.35;;;;;;;3.60;81.50;101516.48;1826409;78;21201;-49
2021/04/01 01:45:25;;;;;;;77.35;36.58;;;;;;;3.58;81.61;101519.58;1825315;78;21055;-49
2021/04/01 01:47:52;;;;;;;70.70;34.00;;;;;;;3.57;81.87;101509.84;1824651;77;21070;-49
2021/04/01 01:50:21;;;;;;;62.98;33.45;;;;;;;3.56;82.10;101508.08;1824714;78;21062;-49
2021/04/01 01:52:51;;;;;;;59.85;32.70;;;;;;;3.55;82.20;101507.20;1824809;78;21027;-48
2021/04/01 01:55:19;;;;;;;67.20;33.18;;;;;;;3.56;82.39;101499.70;1824774;78;21756;-48
2021/04/01 01:57:48;;;;;;;76.10;35.75;;;;;;;3.57;82.55;101504.55;1855272;77;21165;-48
2021/04/01 02:00:36;;;;;;;77.22;34.33;;;;;;;3.59;82.56;101498.81;1859634;77;21035;-49
2021/04/01 02:03:05;;;;;;;89.32;37.48;;;;;;;3.60;82.51;101503.69;1859575;77;21074;-48
2021/04/01 02:05:34;;;;;;;66.45;34.15;;;;;;;3.58;82.47;101501.92;1859724;77;21212;-48
2021/04/01 02:08:04;;;;;;;60.28;31.30;;;;;;;3.56;82.49;101503.67;1859529;77;22016;-49
2021/04/01 02:10:39;;;;;;;60.98;31.42;;;;;;;3.55;82.60;101502.33;1859479;77;21060;-49
2021/04/01 02:13:08;;;;;;;68.50;30.75;;;;;;;3.54;82.78;101499.22;1859531;77;21162;-49
2021/04/01 02:15:39;;;;;;;65.80;32.83;;;;;;;3.54;82.81;101502.78;1859585;77;21151;-49
2021/04/01 02:18:17;;;;;;;61.15;29.18;;;;;;;3.54;82.79;101504.53;1859697;77;21071;-49
2021/04/01 02:20:48;;;;;;;63.68;31.80;;;;;;;3.53;82.81;101500.10;1859606;77;21678;-49
2021/04/01 02:23:25;;;;;;;63.17;30.08;;;;;;;3.51;82.86;101500.54;1859437;77;21111;-49
2021/04/01 02:25:55;;;;;;;60.63;30.85;;;;;;;3.50;82.91;101504.94;1859589;77;21174;-49
2021/04/01 02:28:27;;;;;;;69.50;31.27;;;;;;;3.49;82.93;101504.95;1859615;77;21493;-49
2021/04/01 02:31:07;;;;;;;63.95;31.90;;;;;;;3.48;82.99;101504.05;1859578;77;21150;-48
2021/04/01 02:33:37;;;;;;;62.45;31.15;;;;;;;3.48;83.05;101502.72;1859560;77;21139;-49
2021/04/01 02:36:06;;;;;;;68.85;31.30;;;;;;;3.49;83.09;101503.63;1859378;77;21095;-49
2021/04/01 02:38:33;;;;;;;68.95;32.98;;;;;;;3.50;83.12;101498.77;1859553;77;21481;-48
2021/04/01 02:41:01;;;;;;;74.42;35.00;;;;;;;3.50;83.09;101495.66;1859615;77;21051;-48
2021/04/01 02:43:35;;;;;;;79.42;36.65;;;;;;;3.50;83.03;101492.14;1859543;77;21112;-49
2021/04/01 02:46:04;;;;;;;70.78;35.78;;;;;;;3.44;83.01;101490.33;1826985;77;21251;-49
2021/04/01 02:48:32;;;;;;;58.95;30.55;;;;;;;3.39;83.21;101486.77;1830222;77;21455;-48
2021/04/01 02:51:00;;;;;;;72.17;32.70;;;;;;;3.34;83.54;101486.72;1830242;78;21082;-48
2021/04/01 02:53:28;;;;;;;68.22;33.50;;;;;;;3.35;83.76;101485.84;1814427;78;21126;-48
2021/04/01 02:55:56;;;;;;;63.10;33.35;;;;;;;3.34;83.86;101486.72;1830130;78;21090;-49
2021/04/01 02:58:24;;;;;;;61.92;32.00;;;;;;;3.34;83.97;101484.53;1830053;77;22365;-49
2021/04/01 03:00:52;;;;;;;69.72;31.95;;;;;;;3.34;84.07;101483.20;1829888;78;21133;-48
2021/04/01 03:03:55;;;;;;;76.55;33.80;;;;;;;3.31;84.13;101481.41;1829876;78;21111;-48
2021/04/01 03:05:57;;;;;;;67.95;33.28;;;;;;;3.28;84.12;101480.06;1816185;78;21134;-50
2021/04/01 03:08:25;;;;;;;70.28;35.23;;;;;;;3.23;84.25;101484.00;1829880;78;21176;-49
2021/04/01 03:10:54;;;;;;;65.50;33.83;;;;;;;3.19;84.51;101477.33;1829760;77;21177;-49
2021/04/01 03:13:23;;;;;;;59.77;30.77;;;;;;;3.17;84.77;101481.73;1829881;78;21074;-49
2021/04/01 03:15:51;;;;;;;57.88;29.72;;;;;;;3.14;85.19;101477.31;1829942;78;21074;-49
2021/04/01 03:18:20;;;;;;;55.52;29.07;;;;;;;3.14;85.38;101484.81;1829881;77;21059;-49
2021/04/01 03:20:48;;;;;;;53.70;28.40;;;;;;;3.18;85.42;101480.85;1830000;78;21202;-49
2021/04/01 03:23:17;;;;;;;58.33;31.05;;;;;;;3.21;85.45;101492.83;1829909;78;21380;-50
2021/04/01 03:25:45;;;;;;;61.95;30.30;;;;;;;3.23;85.41;101483.12;1829771;78;21150;-48
2021/04/01 03:28:13;;;;;;;55.28;29.07;;;;;;;3.25;85.37;101478.72;1830014;78;21121;-49
2021/04/01 03:30:47;;;;;;;58.75;29.32;;;;;;;3.25;85.24;101474.75;1829901;78;21090;-48
2021/04/01 03:33:11;;;;;;;57.88;28.98;;;;;;;3.25;85.12;101478.72;1829612;78;21487;-48
2021/04/01 03:35:39;;;;;;;59.18;29.48;;;;;;;3.24;84.99;101479.59;1829949;78;21383;-48
2021/04/01 03:38:07;;;;;;;55.50;30.62;;;;;;;3.21;84.98;101479.12;1829819;78;21114;-49
2021/04/01 03:40:35;;;;;;;55.50;29.02;;;;;;;3.19;85.04;101472.03;1829878;78;21145;-49
2021/04/01 03:43:03;;;;;;;49.93;26.80;;;;;;;3.19;85.12;101478.66;1829852;78;21038;-49
2021/04/01 03:45:30;;;;;;;60.08;27.17;;;;;;;3.19;85.12;101477.33;1841145;77;21045;-49
2021/04/01 03:47:58;;;;;;;53.28;28.27;;;;;;;3.21;85.17;101475.61;1857496;77;21352;-49
2021/04/01 03:50:25;;;;;;;53.58;28.65;;;;;;;3.22;85.17;101472.08;1862679;77;21123;-48
2021/04/01 03:52:53;;;;;;;55.03;29.52;;;;;;;3.22;85.11;101473.41;1862842;77;21060;-48
2021/04/01 03:57:51;;;;;;;67.47;27.93;;;;;;;3.23;85.14;101476.50;1831591;77;21089;-48
2021/04/01 04:00:24;;;;;;;55.08;26.87;;;;;;;3.25;85.20;101473.42;1827308;78;22222;-49
2021/04/01 04:05:42;;;;;;;52.78;27.80;;;;;;;3.33;85.22;101470.83;1827247;78;21130;-48
2021/04/01 04:15:34;;;;;;;52.27;27.52;;;;;;;3.62;84.86;101472.76;1827120;78;21399;-48
2021/04/01 04:18:03;;;;;;;51.48;27.07;;;;;;;3.71;84.66;101473.69;1827133;78;21042;-49
2021/04/01 04:20:30;;;;;;;61.75;29.70;;;;;;;3.81;84.37;101475.05;1827169;78;21063;-49
2021/04/01 04:22:58;;;;;;;57.67;29.32;;;;;;;3.90;83.81;101475.53;1827305;77;21565;-48
2021/04/01 04:25:27;;;;;;;64.15;29.98;;;;;;;3.97;83.58;101478.23;1827151;78;21687;-49
2021/04/01 04:30:25;;;;;;;67.92;31.35;;;;;;;4.14;83.03;101480.94;1827279;78;21031;-49
2021/04/01 04:32:52;;;;;;;59.42;28.45;;;;;;;4.23;82.58;101474.77;1827059;77;21058;-49
2021/04/01 04:35:20;;;;;;;56.70;29.92;;;;;;;4.32;82.02;101473.05;1827236;78;21031;-50
2021/04/01 04:37:48;;;;;;;66.53;30.92;;;;;;;4.38;81.47;101473.05;1827334;78;21391;-49
2021/04/01 04:40:16;;;;;;;60.23;30.00;;;;;;;4.40;81.23;101472.16;1827202;78;21468;-49
2021/04/01 04:42:43;;;;;;;71.20;31.20;;;;;;;4.45;80.91;101474.83;1827203;78;21158;-49
2021/04/01 04:45:13;;;;;;;57.40;27.67;;;;;;;4.52;80.62;101473.95;1847168;77;21123;-50
2021/04/01 04:47:40;;;;;;;56.00;28.92;;;;;;;4.62;80.36;101477.97;1861297;77;21492;-49
2021/04/01 04:50:10;;;;;;;53.48;30.35;;;;;;;4.72;79.96;101473.99;1859363;77;21679;-49
2021/04/01 04:52:38;;;;;;;63.92;32.53;;;;;;;4.83;79.65;101472.67;1859412;77;21147;-49
2021/04/01 04:55:09;;;;;;;65.10;31.00;;;;;;;4.95;78.76;101465.14;1859412;77;21111;-48
2021/04/01 05:05:43;;;;;;;60.12;28.30;;;;;;;5.24;78.29;101467.34;1829195;78;21078;-49
2021/04/01 05:08:12;;;;;;;61.37;29.30;;;;;;;5.41;77.76;101468.64;1829181;78;21053;-49
2021/04/01 05:10:39;;;;;;;53.50;28.80;;;;;;;5.56;77.11;101469.05;1806475;78;21069;-49
2021/04/01 05:13:08;;;;;;;53.48;29.40;;;;;;;5.66;76.69;101456.60;1829382;78;21126;-49
2021/04/01 05:15:45;;;;;;;59.50;28.25;;;;;;;5.78;76.18;101459.23;1829274;78;21227;-49
2021/04/01 05:18:29;;;;;;;57.67;28.12;;;;;;;5.91;75.69;101457.41;1829147;78;21078;-50
2021/04/01 05:20:59;;;;;;;51.18;26.50;;;;;;;6.06;75.33;101455.58;1829107;78;21098;-49
2021/04/01 05:26:16;;;;;;;64.15;29.25;;;;;;;6.35;74.42;101449.23;1829254;78;21150;-50
2021/04/01 05:28:30;;;;;;;48.02;25.30;;;;;;;6.51;73.95;101457.53;1825953;78;21464;-50
2021/04/01 05:30:56;;;;;;;46.42;25.55;;;;;;;6.69;73.35;101455.64;1827275;78;21177;-49
2021/04/01 05:33:28;;;;;;;63.92;30.32;;;;;;;6.87;72.45;101450.17;1829261;78;21039;-50
2021/04/01 05:35:54;;;;;;;69.42;28.70;;;;;;;7.02;71.61;101448.28;1829406;78;22270;-49
2021/04/01 05:38:21;;;;;;;67.78;28.60;;;;;;;7.17;71.40;101449.91;1829537;78;21398;-49
2021/04/01 05:40:49;;;;;;;58.48;26.80;;;;;;;7.28;70.93;101445.34;1829483;78;21535;-49
2021/04/01 05:43:20;;;;;;;54.98;28.47;;;;;;;7.38;70.26;101450.60;1829323;78;21142;-49
2021/04/01 05:45:56;;;;;;;72.58;29.60;;;;;;;7.41;69.85;101441.23;1853598;77;21122;-50
2021/04/01 05:48:28;;;;;;;71.07;27.60;;;;;;;7.49;70.02;101439.81;1859965;76;21567;-49
2021/04/01 05:51:26;;;;;;;68.17;28.07;;;;;;;7.60;69.63;101444.56;1862098;77;21083;-49
2021/04/01 05:59:16;;;;;;;53.87;26.30;;;;;;;8.02;68.87;101450.75;1737230;82;21222;-49
2021/04/01 06:07:02;;;;;;;64.55;26.95;;;;;;;8.45;67.55;101438.56;1784543;80;21182;-49
2021/04/01 06:09:33;;;;;;;46.10;23.12;;;;;;;8.57;67.15;101438.42;1784485;80;20951;-50
2021/04/01 06:12:01;;;;;;;45.43;23.50;;;;;;;8.73;66.74;101432.80;1752635;80;21340;-50
2021/04/01 06:14:38;;;;;;;44.40;22.30;;;;;;;8.91;65.88;101438.77;1784510;80;21079;-49
2021/04/01 06:17:11;;;;;;;47.38;23.92;;;;;;;9.10;64.75;101438.01;1784619;80;20964;-52
2021/04/01 06:19:42;;;;;;;59.83;25.90;;;;;;;9.40;64.10;101435.23;1784605;80;21357;-52
2021/04/01 06:22:12;;;;;;;50.80;27.10;;;;;;;9.88;62.95;101437.40;1783560;80;21200;-50
2021/04/01 06:24:40;;;;;;;52.30;27.55;;;;;;;10.11;61.59;101436.02;1784546;80;20995;-50
2021/04/01 06:27:30;;;;;;;56.37;29.05;;;;;;;10.14;61.31;101437.28;1784584;80;21062;-50
2021/04/01 06:30:22;;;;;;;52.83;28.75;;;;;;;10.12;60.96;101434.63;1784061;80;21526;-50
2021/04/01 06:32:57;;;;;;;66.82;26.87;;;;;;;10.04;60.48;101438.81;1783693;80;23229;-49
2021/04/01 06:35:28;;;;;;;63.68;27.27;;;;;;;10.04;59.91;101434.79;1754165;80;21230;-50
2021/04/01 06:40:51;;;;;;;47.67;27.35;;;;;;;10.42;59.87;101432.66;1784446;80;21135;-50
2021/04/01 06:43:40;;;;;;;42.62;24.87;;;;;;;10.76;59.89;101446.61;1784561;80;21054;-50
2021/04/01 06:46:08;;;;;;;38.15;21.62;;;;;;;10.91;59.68;101447.13;1784339;80;21328;-50
2021/04/01 06:51:31;;;;;;;21.85;14.95;;;;;;;10.91;56.73;101444.45;1784496;80;21090;-50
2021/04/01 06:54:16;;;;;;;27.32;15.32;;;;;;;10.68;56.56;101444.56;1784119;80;21173;-50
2021/04/01 06:56:53;;;;;;;23.05;14.53;;;;;;;10.58;56.55;101456.86;1768158;80;21233;-50
2021/04/01 06:59:44;;;;;;;29.57;15.05;;;;;;;10.47;56.62;101445.49;1756188;81;21706;-50
2021/04/01 07:02:22;;;;;;;25.55;14.87;;;;;;;10.37;57.08;101443.92;1753988;81;21116;-50
2021/04/01 07:04:50;;;;;;;22.15;14.45;;;;;;;10.26;57.75;101447.72;1756513;81;21081;-50
2021/04/01 07:07:21;;;;;;;22.35;14.58;;;;;;;10.14;58.46;101448.00;1756646;81;21142;-51
2021/04/01 07:10:33;;;;;;;22.82;15.05;;;;;;;10.12;58.99;101448.02;1756719;81;21062;-51
2021/04/01 07:12:48;;;;;;;26.20;14.13;;;;;;;10.06;58.96;101444.59;1752787;81;21511;-51
2021/04/01 07:15:24;;;;;;;22.40;14.38;;;;;;;9.87;59.44;101438.31;1775646;80;21189;-50
2021/04/01 07:17:54;;;;;;;21.60;14.23;;;;;;;9.78;60.01;101431.35;1780332;80;21141;-49
2021/04/01 07:20:49;;;;;;;22.32;14.30;;;;;;;9.79;60.50;101434.89;1783113;80;21477;-50
2021/04/01 07:32:03;;;;;;;22.17;14.00;;;;;;;9.82;62.58;101433.48;1776458;79;21106;-50
2021/04/01 07:46:05;;;;;;;25.88;14.13;;;;;;;9.79;62.91;101428.20;1783017;80;21141;-50
2021/04/01 07:48:15;;;;;;;28.42;15.75;;;;;;;9.74;62.92;101422.48;1779478;80;21133;-50
2021/04/01 07:50:44;;;;;;;26.33;14.93;;;;;;;9.68;63.32;101422.63;1777598;79;21134;-50
2021/04/01 07:53:13;;;;;;;29.42;16.57;;;;;;;9.65;63.65;101416.00;1783640;80;21204;-50
2021/04/01 07:56:02;;;;;;;26.33;15.80;;;;;;;9.65;64.16;101418.67;1748941;80;21055;-50
2021/04/01 08:03:56;;;;;;;24.43;15.70;;;;;;;9.64;64.34;101408.88;1760685;81;21121;-48
2021/04/01 08:06:25;;;;;;;29.10;17.02;;;;;;;9.63;64.25;101407.12;1760683;81;21196;-49
2021/04/01 08:09:10;;;;;;;26.87;16.30;;;;;;;9.57;64.51;101400.08;1747396;81;21156;-50
2021/04/01 08:11:48;;;;;;;27.73;16.27;;;;;;;9.55;64.83;101397.90;1743788;80;21069;-49
2021/04/01 08:14:25;;;;;;;19.62;13.38;;;;;;;9.44;65.15;101392.76;1742724;81;21187;-50
2021/04/01 08:17:16;;;;;;;33.55;16.73;;;;;;;9.33;65.42;101388.06;1747716;81;22342;-51
2021/04/01 08:19:42;;;;;;;33.63;17.45;;;;;;;9.28;65.80;101385.94;1747571;81;21261;-49
2021/04/01 08:22:17;;;;;;;31.07;17.62;;;;;;;9.21;66.30;101389.66;1743103;82;21194;-49
2021/04/01 08:24:50;;;;;;;27.75;18.35;;;;;;;9.28;66.14;101386.84;1743201;82;21098;-49
2021/04/01 08:35:25;;;;;;;28.12;16.93;;;;;;;9.91;65.31;101373.04;1730581;82;21164;-51
2021/04/01 08:40:36;;;;;;;29.70;18.12;;;;;;;10.18;64.10;101378.68;1730583;82;21112;-50
2021/04/01 08:46:36;;;;;;;29.87;20.25;;;;;;;10.36;63.91;101367.11;1872977;76;27729;-51
2021/04/01 08:49:26;;;;;;;29.32;18.30;;;;;;;10.44;63.94;101370.50;1859155;77;21508;-50
2021/04/01 08:52:14;;;;;;;30.43;16.70;;;;;;;10.56;63.40;101366.19;1860466;77;22974;-50
2021/04/01 08:54:54;;;;;;;28.32;17.98;;;;;;;10.60;62.90;101364.30;1860217;77;21397;-49
2021/04/01 08:57:38;;;;;;;31.27;17.32;;;;;;;10.54;62.78;101362.67;1860247;77;21067;-50
2021/04/01 09:00:09;;;;;;;27.20;16.62;;;;;;;10.47;62.79;101359.70;1860235;77;21115;-50
2021/04/01 09:02:36;;;;;;;24.47;15.83;;;;;;;10.44;62.71;101366.48;1860257;77;20933;-50
2021/04/01 09:05:10;;;;;;;30.68;17.67;;;;;;;10.38;62.35;101356.75;1857870;77;21668;-50
2021/04/01 09:07:44;;;;;;;25.17;16.50;;;;;;;10.32;62.81;101355.57;1824786;78;20987;-50
2021/04/01 09:10:19;;;;;;;29.07;17.90;;;;;;;10.30;63.35;101358.30;1824902;78;21059;-49
2021/04/01 09:13:01;;;;;;;29.57;17.87;;;;;;;10.29;63.50;101351.63;1824740;78;21566;-51
2021/04/01 09:17:55;;;;;;;26.70;17.27;;;;;;;10.30;63.84;101350.27;1824688;78;21193;-51
2021/04/01 09:20:24;;;;;;;29.00;17.73;;;;;;;10.33;63.71;101349.29;1824624;77;21062;-51
2021/04/01 09:22:58;;;;;;;32.63;18.82;;;;;;;10.36;63.87;101347.01;1824798;78;21460;-49
2021/04/01 09:25:41;;;;;;;31.73;17.42;;;;;;;10.39;63.83;101345.58;1824356;78;21130;-49
2021/04/01 09:28:09;;;;;;;29.05;17.32;;;;;;;10.40;63.13;101336.62;1825018;77;21110;-49
2021/04/01 09:30:37;;;;;;;29.80;16.80;;;;;;;10.42;63.11;101337.50;1790099;80;22390;-49
2021/04/01 09:33:10;;;;;;;27.25;17.32;;;;;;;10.39;62.65;101337.54;1789301;80;21201;-50
2021/04/01 09:35:38;;;;;;;30.32;15.50;;;;;;;10.31;62.88;101335.95;1790154;80;21130;-50
2021/04/01 09:38:10;;;;;;;32.85;16.32;;;;;;;10.28;62.89;101333.78;1790156;80;22360;-52
2021/04/01 09:40:40;;;;;;;29.02;15.40;;;;;;;10.27;62.73;101323.51;1790051;80;21126;-50
2021/04/01 09:43:19;;;;;;;27.60;17.27;;;;;;;10.26;62.78;101330.27;1799212;78;21264;-50
2021/04/01 09:45:49;;;;;;;28.10;17.62;;;;;;;10.26;63.19;101323.09;1785967;79;21205;-50
2021/04/01 09:48:24;;;;;;;27.48;16.65;;;;;;;10.30;63.15;101322.56;1768853;80;21133;-49
2021/04/01 09:50:58;;;;;;;30.90;16.02;;;;;;;10.29;62.99;101310.98;1785718;80;21054;-50
2021/04/01 09:53:23;;;;;;;30.40;17.98;;;;;;;10.32;63.05;101317.60;1791801;79;21069;-50
2021/04/01 09:55:57;;;;;;;27.40;18.45;;;;;;;10.32;62.72;101312.69;1781459;79;21211;-49
2021/04/01 09:58:40;;;;;;;37.63;19.12;;;;;;;10.30;62.41;101312.73;1784000;79;21193;-49
2021/04/01 10:01:33;;;;;;;28.55;17.40;;;;;;;10.26;62.68;101307.01;1810735;77;21546;-50
2021/04/01 10:04:13;;;;;;;33.42;19.02;;;;;;;10.25;62.97;101302.56;1780800;80;21106;-49
2021/04/01 10:06:43;;;;;;;34.00;20.00;;;;;;;10.27;62.89;101302.06;1740345;81;21095;-50
2021/04/01 10:09:18;;;;;;;32.08;21.37;;;;;;;10.31;63.03;101293.06;1787856;80;21536;-50
2021/04/01 10:12:07;;;;;;;29.77;19.75;;;;;;;10.36;63.10;101292.05;1787853;80;21157;-50
2021/04/01 10:14:37;;;;;;;28.98;19.15;;;;;;;10.36;63.15;101288.90;1780658;80;21118;-49
2021/04/01 10:17:09;;;;;;;30.10;19.75;;;;;;;10.37;62.77;101285.77;1701861;81;21125;-50
2021/04/01 10:19:44;;;;;;;31.15;18.57;;;;;;;10.34;63.09;101285.38;1777995;79;21145;-50
2021/04/01 10:22:24;;;;;;;31.48;18.95;;;;;;;10.30;63.43;101283.26;1808647;79;21226;-50
2021/04/01 10:25:21;;;;;;;26.57;17.10;;;;;;;10.28;63.86;101277.06;1766554;80;21067;-50
2021/04/01 10:30:19;;;;;;;26.65;18.27;;;;;;;10.18;64.26;101268.38;1781598;79;21126;-49
2021/04/01 10:33:12;;;;;;;35.25;19.50;;;;;;;10.15;64.59;101272.44;1783792;80;21182;-50
2021/04/01 10:35:41;;;;;;;31.37;19.50;;;;;;;10.14;64.85;101264.45;1791772;80;21351;-50
2021/04/01 10:38:12;;;;;;;31.45;18.48;;;;;;;10.11;64.97;101261.38;1781584;79;21156;-50
2021/04/01 10:40:40;;;;;;;27.60;17.85;;;;;;;10.12;65.20;101254.23;1783945;80;21092;-50
2021/04/01 10:43:11;;;;;;;31.95;18.95;;;;;;;10.13;65.17;101258.68;1751798;80;21382;-49
2021/04/01 10:45:46;;;;;;;28.30;17.92;;;;;;;10.11;65.23;101251.14;1781309;79;21205;-50
2021/04/01 10:48:33;;;;;;;29.85;18.52;;;;;;;10.11;65.36;101249.33;1794333;79;21692;-50
2021/04/01 10:51:07;;;;;;;30.23;18.65;;;;;;;10.14;65.32;101247.04;1780864;80;21146;-50
2021/04/01 10:53:33;;;;;;;26.45;17.35;;;;;;;10.14;65.29;101240.34;1776879;78;21474;-49
2021/04/01 10:56:03;;;;;;;28.83;17.50;;;;;;;10.15;65.17;101236.73;1789084;79;21162;-50
2021/04/01 10:58:32;;;;;;;29.72;17.75;;;;;;;10.15;65.04;101232.24;1789228;79;21546;-50
2021/04/01 11:01:01;;;;;;;29.52;18.00;;;;;;;10.16;64.68;101229.98;1785172;79;21177;-50
2021/04/01 11:03:33;;;;;;;33.40;17.75;;;;;;;10.14;64.95;101224.27;1782858;78;21580;-50
2021/04/01 11:06:01;;;;;;;30.15;17.27;;;;;;;10.13;64.92;101223.37;1786245;80;21113;-50
2021/04/01 11:08:40;;;;;;;29.05;16.48;;;;;;;10.14;64.65;101212.20;1827823;77;21102;-50
2021/04/01 11:11:08;;;;;;;25.55;16.70;;;;;;;10.13;64.69;101208.63;1827758;78;21141;-50
2021/04/01 11:13:38;;;;;;;35.38;17.52;;;;;;;10.15;64.78;101209.47;1827824;77;21355;-50
2021/04/01 11:16:09;;;;;;;28.60;17.20;;;;;;;10.18;64.72;101205.84;1827919;78;21512;-50
2021/04/01 11:18:41;;;;;;;32.53;18.35;;;;;;;10.21;64.58;101203.08;1827813;78;21546;-50
2021/04/01 11:21:08;;;;;;;33.78;17.80;;;;;;;10.25;64.28;101189.15;1809267;78;21106;-50
2021/04/01 11:23:36;;;;;;;29.12;17.62;;;;;;;10.26;64.38;101194.45;1827931;78;21113;-50
2021/04/01 11:26:04;;;;;;;32.50;17.77;;;;;;;10.34;64.28;101197.41;1827745;78;21326;-51
2021/04/01 11:28:44;;;;;;;30.15;17.52;;;;;;;10.37;63.89;101189.28;1827393;78;21078;-49
2021/04/01 11:31:26;;;;;;;30.23;18.10;;;;;;;10.40;63.50;101187.85;1827932;78;21550;-50
2021/04/01 11:33:55;;;;;;;30.20;17.77;;;;;;;10.42;63.47;101187.38;1827937;77;21483;-50
2021/04/01 11:36:26;;;;;;;26.42;17.07;;;;;;;10.48;62.95;101183.66;1827937;77;21133;-49
2021/04/01 11:38:59;;;;;;;31.45;17.95;;;;;;;10.53;62.41;101187.98;1827838;78;21576;-51
2021/04/01 11:41:29;;;;;;;29.52;18.15;;;;;;;10.57;62.07;101178.92;1825533;78;21142;-50
2021/04/01 11:43:58;;;;;;;26.00;16.17;;;;;;;10.63;61.96;101178.32;1826324;78;21086;-51
2021/04/01 11:46:28;;;;;;;27.77;17.75;;;;;;;10.67;62.11;101170.60;1787368;80;21590;-50
2021/04/01 11:48:58;;;;;;;34.13;18.67;;;;;;;10.71;61.88;101168.24;1791082;80;21550;-50
2021/04/01 11:51:31;;;;;;;30.27;17.02;;;;;;;10.73;61.72;101165.08;1787465;80;21373;-50
2021/04/01 11:53:58;;;;;;;25.45;16.45;;;;;;;10.72;61.49;101160.61;1790942;80;21122;-50
2021/04/01 11:56:42;;;;;;;31.20;16.97;;;;;;;10.71;61.56;101153.49;1787409;80;21141;-50
2021/04/01 11:59:16;;;;;;;25.45;16.90;;;;;;;10.71;61.67;101155.72;1790914;80;21367;-50
2021/04/01 12:01:57;;;;;;;28.80;16.23;;;;;;;10.74;61.36;101145.38;1787616;80;21482;-50
2021/04/01 12:04:25;;;;;;;29.42;16.37;;;;;;;10.76;61.26;101143.53;1791097;80;21439;-51
2021/04/01 12:06:53;;;;;;;27.40;15.70;;;;;;;10.76;61.01;101136.83;1793621;80;21105;-50
2021/04/01 12:09:21;;;;;;;26.15;16.32;;;;;;;10.79;60.96;101130.02;1795315;80;21118;-49
2021/04/01 12:11:48;;;;;;;32.00;16.00;;;;;;;10.82;60.67;101123.67;1795204;80;21140;-50
2021/04/01 12:14:17;;;;;;;23.30;14.78;;;;;;;10.85;60.47;101127.15;1795281;80;21134;-50
2021/04/01 12:16:46;;;;;;;22.37;13.53;;;;;;;10.88;60.57;101124.38;1795185;80;21189;-49
2021/04/01 12:19:13;;;;;;;24.35;15.40;;;;;;;10.91;60.26;101120.73;1766751;80;21078;-50
2021/04/01 12:21:42;;;;;;;25.88;15.13;;;;;;;10.95;60.18;101118.84;1795211;80;21054;-50
2021/04/01 12:24:10;;;;;;;24.70;14.47;;;;;;;10.94;59.73;101119.73;1795131;80;21153;-50
2021/04/01 12:26:51;;;;;;;26.55;13.78;;;;;;;10.94;59.77;101106.33;1766732;80;21565;-50
2021/04/01 12:29:18;;;;;;;22.98;12.85;;;;;;;10.97;59.40;101103.58;1795245;80;21314;-50
2021/04/01 12:31:54;;;;;;;22.85;12.47;;;;;;;10.99;58.73;101099.90;1795101;80;21188;-50
2021/04/01 12:34:27;;;;;;;23.42;12.10;;;;;;;11.03;57.97;101103.38;1795424;80;21530;-49
2021/04/01 12:36:56;;;;;;;20.15;10.95;;;;;;;11.09;57.83;101103.17;1795265;80;21436;-49
2021/04/01 12:39:30;;;;;;;16.30;10.93;;;;;;;11.16;57.42;101099.84;1795337;80;21228;-50
2021/04/01 12:41:57;;;;;;;19.55;11.08;;;;;;;11.25;56.63;101101.34;1795175;80;21195;-52
2021/04/01 12:44:38;;;;;;;17.48;10.43;;;;;;;11.33;56.04;101100.63;1786660;80;21600;-49
2021/04/01 12:47:06;;;;;;;18.92;10.65;;;;;;;11.37;54.93;101088.85;1765211;80;22336;-50
2021/04/01 12:49:36;;;;;;;19.75;11.68;;;;;;;11.46;54.86;101085.88;1813091;78;21622;-49
2021/04/01 12:52:05;;;;;;;17.85;10.45;;;;;;;11.54;54.53;101085.63;1809006;78;21099;-50
2021/04/01 12:54:39;;;;;;;16.67;10.08;;;;;;;11.60;54.24;101088.55;1807731;79;22390;-50
2021/04/01 12:57:15;;;;;;;19.00;9.90;;;;;;;11.64;54.04;101083.51;1807624;79;21103;-50
2021/04/01 12:59:47;;;;;;;19.40;11.65;;;;;;;11.68;54.04;101078.44;1813371;78;21167;-50
2021/04/01 13:02:16;;;;;;;18.73;12.58;;;;;;;11.70;54.29;101075.23;1763480;81;21138;-50